createdAt,value
2019-01-24T00:00:42.346Z,37.43
2019-01-24T00:03:12.394Z,35.03
2019-01-24T00:05:42.427Z,36.27
2019-01-24T00:08:12.185Z,36.13
2019-01-24T00:10:42.027Z,36.00
2019-01-24T00:13:11.960Z,34.53
2019-01-24T00:15:41.965Z,34.40
2019-01-24T00:18:11.710Z,32.23
2019-01-24T00:20:41.578Z,34.83
2019-01-24T00:23:11.277Z,37.27
2019-01-24T00:25:40.943Z,33.63
2019-01-24T00:28:11.029Z,34.57
2019-01-24T00:30:40.729Z,33.37
2019-01-24T00:33:10.462Z,33.13
2019-01-24T00:35:40.134Z,34.30
2019-01-24T00:38:09.881Z,34.13
2019-01-24T00:40:39.532Z,32.87
2019-01-24T00:43:09.308Z,33.60
2019-01-24T00:45:39.092Z,31.23
2019-01-24T00:48:08.833Z,32.77
2019-01-24T00:50:38.581Z,33.43
2019-01-24T00:53:08.255Z,34.33
2019-01-24T00:55:37.957Z,34.43
2019-01-24T00:58:07.736Z,35.53
2019-01-24T01:00:37.483Z,34.13
2019-01-24T01:03:07.269Z,33.47
2019-01-24T01:05:37.298Z,32.40
2019-01-24T01:08:07.060Z,35.47
2019-01-24T01:10:36.825Z,31.57
2019-01-24T01:13:06.477Z,30.23
2019-01-24T01:15:36.193Z,32.00
2019-01-24T01:18:05.954Z,33.67
2019-01-24T01:20:35.654Z,34.20
2019-01-24T01:23:05.646Z,32.17
2019-01-24T01:25:35.578Z,34.73
2019-01-24T01:28:06.794Z,33.20
2019-01-24T01:30:36.553Z,34.10
2019-01-24T01:33:06.338Z,32.73
2019-01-24T01:35:36.204Z,33.77
2019-01-24T01:38:06.291Z,31.17
2019-01-24T01:40:36.013Z,29.97
2019-01-24T01:43:05.786Z,34.97
2019-01-24T01:45:35.486Z,27.87
2019-01-24T01:48:05.543Z,30.80
2019-01-24T01:50:35.344Z,33.20
2019-01-24T01:53:05.054Z,32.00
2019-01-24T01:55:34.887Z,29.40
2019-01-24T01:58:04.875Z,29.87
2019-01-24T02:00:35.123Z,33.20
2019-01-24T02:03:04.890Z,32.53
2019-01-24T02:05:34.931Z,31.50
2019-01-24T02:08:05.251Z,32.00
2019-01-24T02:10:35.615Z,30.53
2019-01-24T02:13:05.514Z,31.60
2019-01-24T02:15:35.220Z,28.07
2019-01-24T02:18:05.206Z,32.00
2019-01-24T02:20:34.910Z,30.57
2019-01-24T02:23:05.249Z,29.73
2019-01-24T02:25:35.840Z,28.57
2019-01-24T02:28:05.704Z,28.23
2019-01-24T02:30:35.414Z,28.70
2019-01-24T02:33:05.177Z,28.97
2019-01-24T02:35:34.822Z,30.60
2019-01-24T02:38:04.620Z,31.20
2019-01-24T02:40:34.303Z,29.03
2019-01-24T02:43:04.089Z,31.13
2019-01-24T02:45:33.834Z,30.80
2019-01-24T02:48:03.574Z,31.40
2019-01-24T02:50:33.320Z,30.43
2019-01-24T02:53:02.998Z,30.50
2019-01-24T02:55:32.675Z,30.17
2019-01-24T02:58:02.366Z,30.30
2019-01-24T03:00:32.100Z,31.13
2019-01-24T03:03:01.795Z,28.63
2019-01-24T03:05:31.499Z,30.73
2019-01-24T03:08:01.559Z,31.53
2019-01-24T03:10:31.214Z,32.03
2019-01-24T03:13:01.299Z,30.63
2019-01-24T03:15:31.136Z,30.47
2019-01-24T03:18:00.892Z,30.57
2019-01-24T03:20:30.627Z,30.10
2019-01-24T03:23:00.642Z,30.43
2019-01-24T03:25:30.482Z,30.83
2019-01-24T03:28:00.191Z,27.83
2019-01-24T03:30:31.134Z,33.23
2019-01-24T03:33:00.773Z,30.60
2019-01-24T03:35:30.551Z,29.50
2019-01-24T03:38:00.170Z,32.37
2019-01-24T03:40:30.139Z,32.40
2019-01-24T03:42:59.915Z,28.73
2019-01-24T03:45:29.623Z,30.80
2019-01-24T03:47:59.362Z,28.10
2019-01-24T03:50:29.112Z,30.20
2019-01-24T03:52:58.717Z,30.90
2019-01-24T03:55:28.609Z,30.63
2019-01-24T03:57:58.305Z,30.57
2019-01-24T04:00:28.229Z,30.80
2019-01-24T04:02:57.906Z,29.77
2019-01-24T04:05:27.706Z,33.33
2019-01-24T04:07:57.402Z,30.73
2019-01-24T04:10:27.092Z,29.83
2019-01-24T04:12:56.726Z,31.23
2019-01-24T04:15:26.495Z,30.60
2019-01-24T04:17:56.505Z,32.73
2019-01-24T04:20:26.292Z,29.40
2019-01-24T04:22:55.966Z,31.40
2019-01-24T04:25:25.737Z,28.47
2019-01-24T04:27:55.454Z,30.83
2019-01-24T04:30:25.655Z,35.57
2019-01-24T04:32:55.370Z,29.33
2019-01-24T04:35:25.143Z,31.00
2019-01-24T04:37:54.929Z,34.60
2019-01-24T04:40:24.599Z,35.77
2019-01-24T04:42:54.306Z,32.23
2019-01-24T04:45:23.925Z,33.17
2019-01-24T04:47:53.657Z,32.60
2019-01-24T04:50:23.545Z,33.37
2019-01-24T04:52:53.209Z,33.80
2019-01-24T04:55:22.885Z,31.20
2019-01-24T04:57:52.667Z,31.97
2019-01-24T05:00:27.959Z,30.40
2019-01-24T05:02:57.688Z,31.83
2019-01-24T05:05:28.234Z,33.53
2019-01-24T05:07:58.375Z,33.50
2019-01-24T05:10:28.153Z,32.77
2019-01-24T05:12:57.893Z,31.30
2019-01-24T05:15:27.640Z,31.50
2019-01-24T05:17:57.320Z,34.70
2019-01-24T05:20:27.122Z,32.83
2019-01-24T05:22:57.153Z,35.40
2019-01-24T05:25:26.801Z,31.40
2019-01-24T05:27:56.471Z,31.40
2019-01-24T05:30:26.779Z,35.50
2019-01-24T05:32:56.805Z,33.73
2019-01-24T05:35:26.808Z,34.80
2019-01-24T05:37:56.484Z,33.97
2019-01-24T05:40:26.646Z,35.77
2019-01-24T05:42:56.334Z,34.67
2019-01-24T05:45:26.068Z,32.07
2019-01-24T05:47:56.202Z,32.93
2019-01-24T05:50:25.974Z,33.30
2019-01-24T05:52:55.929Z,32.00
2019-01-24T05:55:25.626Z,30.70
2019-01-24T05:57:55.360Z,32.23
2019-01-24T06:00:26.745Z,32.17
2019-01-24T06:02:56.801Z,32.40
2019-01-24T06:05:26.562Z,31.20
2019-01-24T06:07:56.227Z,33.37
2019-01-24T06:10:25.835Z,31.43
2019-01-24T06:12:55.851Z,31.60
2019-01-24T06:15:25.603Z,36.40
2019-01-24T06:17:55.786Z,30.47
2019-01-24T06:20:25.561Z,33.00
2019-01-24T06:22:55.610Z,33.83
2019-01-24T06:25:27.425Z,30.87
2019-01-24T06:27:57.072Z,30.53
2019-01-24T06:30:26.853Z,31.93
2019-01-24T06:32:56.548Z,32.27
2019-01-24T06:35:26.610Z,27.50
2019-01-24T06:37:56.323Z,29.77
2019-01-24T06:40:26.093Z,33.90
2019-01-24T06:42:55.735Z,26.50
2019-01-24T06:45:25.385Z,30.37
2019-01-24T06:47:55.364Z,27.30
2019-01-24T06:50:25.095Z,27.73
2019-01-24T06:52:54.771Z,27.43
2019-01-24T06:55:26.679Z,26.73
2019-01-24T06:57:57.223Z,27.77
2019-01-24T07:00:26.918Z,25.90
2019-01-24T07:02:57.912Z,26.10
2019-01-24T07:05:27.718Z,27.27
2019-01-24T07:07:57.418Z,27.33
2019-01-24T07:10:27.354Z,26.47
2019-01-24T07:12:57.063Z,25.67
2019-01-24T07:15:26.867Z,29.80
2019-01-24T07:17:57.007Z,26.50
2019-01-24T07:20:30.199Z,26.03
2019-01-24T07:22:59.951Z,25.53
2019-01-24T07:25:30.008Z,28.90
2019-01-24T07:27:59.682Z,28.20
2019-01-24T07:30:29.367Z,24.43
2019-01-24T07:32:59.776Z,25.17
2019-01-24T07:35:29.580Z,24.83
2019-01-24T07:37:59.344Z,26.70
2019-01-24T07:40:29.045Z,24.07
2019-01-24T07:42:58.733Z,25.73
2019-01-24T07:45:36.809Z,25.80
2019-01-24T07:48:06.934Z,26.83
2019-01-24T07:50:36.782Z,27.20
2019-01-24T07:53:07.149Z,25.60
2019-01-24T07:55:37.185Z,26.40
2019-01-24T07:58:07.337Z,27.77
2019-01-24T08:00:37.357Z,25.87
2019-01-24T08:03:07.136Z,23.10
2019-01-24T08:05:37.908Z,25.97
2019-01-24T08:08:07.658Z,22.73
2019-01-24T08:10:37.434Z,21.37
2019-01-24T08:13:07.320Z,23.00
2019-01-24T08:15:37.158Z,23.60
2019-01-24T08:18:07.219Z,25.10
2019-01-24T08:20:36.940Z,22.27
2019-01-24T08:23:06.613Z,23.80
2019-01-24T08:25:36.776Z,25.20
2019-01-24T08:28:06.528Z,22.87
2019-01-24T08:30:36.282Z,25.20
2019-01-24T08:33:06.188Z,25.23
2019-01-24T08:35:36.174Z,22.33
2019-01-24T08:38:06.267Z,23.00
2019-01-24T08:40:35.978Z,23.20
2019-01-24T08:43:06.073Z,27.57
2019-01-24T08:45:36.200Z,26.03
2019-01-24T08:48:06.101Z,22.80
2019-01-24T08:50:36.130Z,25.37
2019-01-24T08:53:05.911Z,26.60
2019-01-24T08:55:37.584Z,21.17
2019-01-24T08:58:07.713Z,25.40
2019-01-24T09:00:37.532Z,24.10
2019-01-24T09:03:07.361Z,25.70
2019-01-24T09:05:37.403Z,23.03
2019-01-24T09:08:07.358Z,23.73
2019-01-24T09:10:38.264Z,24.00
2019-01-24T09:13:07.959Z,21.83
2019-01-24T09:15:37.845Z,25.67
2019-01-24T09:18:08.197Z,22.43
2019-01-24T09:20:39.824Z,25.87
2019-01-24T09:23:09.520Z,25.00
2019-01-24T09:25:39.424Z,26.77
2019-01-24T09:28:14.829Z,25.33
2019-01-24T09:30:40.509Z,27.13
2019-01-24T09:33:10.207Z,23.73
2019-01-24T09:35:40.080Z,22.20
2019-01-24T09:38:09.848Z,29.23
2019-01-24T09:40:39.537Z,24.33
2019-01-24T09:43:09.309Z,24.83
2019-01-24T09:45:39.366Z,23.20
2019-01-24T09:48:10.463Z,24.73
2019-01-24T09:50:40.143Z,24.37
2019-01-24T09:53:09.825Z,27.07
2019-01-24T09:55:39.901Z,25.10
2019-01-24T09:58:09.598Z,26.27
2019-01-24T10:00:39.222Z,27.50
2019-01-24T10:03:08.912Z,26.40
2019-01-24T10:05:38.611Z,22.70
2019-01-24T10:08:08.693Z,26.77
2019-01-24T10:10:38.458Z,26.80
2019-01-24T10:13:08.234Z,24.83
2019-01-24T10:15:37.927Z,23.80
2019-01-24T10:18:07.918Z,26.17
2019-01-24T10:20:37.703Z,25.57
2019-01-24T10:23:08.513Z,25.60
2019-01-24T10:25:38.502Z,25.43
2019-01-24T10:28:08.248Z,23.60
2019-01-24T10:30:42.613Z,24.40
2019-01-24T10:33:09.372Z,25.43
2019-01-24T10:35:39.224Z,34.43
2019-01-24T10:38:09.034Z,27.87
2019-01-24T10:40:38.830Z,30.20
2019-01-24T10:43:08.612Z,26.27
2019-01-24T10:45:38.412Z,29.17
2019-01-24T10:48:08.366Z,25.77
2019-01-24T10:50:38.549Z,29.30
2019-01-24T10:53:08.438Z,25.47
2019-01-24T10:55:38.322Z,27.73
2019-01-24T10:58:08.174Z,26.10
2019-01-24T11:00:39.883Z,24.70
2019-01-24T11:03:11.358Z,27.67
2019-01-24T11:05:41.189Z,26.40
2019-01-24T11:08:11.089Z,26.97
2019-01-24T11:10:40.874Z,24.80
2019-01-24T11:13:10.743Z,24.93
2019-01-24T11:15:40.460Z,26.23
2019-01-24T11:18:10.228Z,25.97
2019-01-24T11:20:40.150Z,25.20
2019-01-24T11:23:09.915Z,28.20
2019-01-24T11:25:39.802Z,25.30
2019-01-24T11:28:09.569Z,26.03
2019-01-24T11:30:39.273Z,32.17
2019-01-24T11:33:09.446Z,26.30
2019-01-24T11:35:39.222Z,34.00
2019-01-24T11:38:09.212Z,24.37
2019-01-24T11:40:38.999Z,29.73
2019-01-24T11:43:08.970Z,28.13
2019-01-24T11:45:40.637Z,25.80
2019-01-24T11:48:10.415Z,26.27
2019-01-24T11:50:40.185Z,28.63
2019-01-24T11:53:10.013Z,27.73
2019-01-24T11:55:39.628Z,27.17
2019-01-24T11:58:10.400Z,28.00
2019-01-24T12:00:41.927Z,26.60
2019-01-24T12:03:12.326Z,29.23
2019-01-24T12:05:42.263Z,29.70
2019-01-24T12:08:12.032Z,32.63
2019-01-24T12:10:41.918Z,29.40
2019-01-24T12:13:11.994Z,31.37
2019-01-24T12:15:41.711Z,30.60
2019-01-24T12:18:11.403Z,35.20
2019-01-24T12:20:41.429Z,33.53
2019-01-24T12:23:11.183Z,32.97
2019-01-24T12:25:40.992Z,34.40
2019-01-24T12:28:10.694Z,36.40
2019-01-24T12:30:40.407Z,36.20
2019-01-24T12:33:10.162Z,39.40
2019-01-24T12:35:40.896Z,36.97
2019-01-24T12:38:12.250Z,39.67
2019-01-24T12:40:41.863Z,38.60
2019-01-24T12:43:11.578Z,36.63
2019-01-24T12:45:41.249Z,39.43
2019-01-24T12:48:10.959Z,39.70
2019-01-24T12:50:40.748Z,38.73
2019-01-24T12:53:10.528Z,33.83
2019-01-24T12:55:40.168Z,40.57
2019-01-24T12:58:09.931Z,39.07
2019-01-24T13:00:39.787Z,35.47
2019-01-24T13:03:09.876Z,36.80
2019-01-24T13:05:39.587Z,38.67
2019-01-24T13:08:09.374Z,35.90
2019-01-24T13:10:39.151Z,39.80
2019-01-24T13:13:08.939Z,37.97
2019-01-24T13:15:39.048Z,33.47
2019-01-24T13:18:08.809Z,37.20
2019-01-24T13:20:38.726Z,32.87
2019-01-24T13:23:08.466Z,39.67
2019-01-24T13:25:38.243Z,38.00
2019-01-24T13:28:08.018Z,36.10
2019-01-24T13:30:37.753Z,32.80
2019-01-24T13:33:07.751Z,32.80
2019-01-24T13:35:37.506Z,33.13
2019-01-24T13:38:07.705Z,32.97
2019-01-24T13:40:37.438Z,35.00
2019-01-24T13:43:07.417Z,32.50
2019-01-24T13:45:37.530Z,30.80
2019-01-24T13:48:07.614Z,33.97
2019-01-24T13:50:37.644Z,32.07
2019-01-24T13:53:07.425Z,33.93
2019-01-24T13:55:37.165Z,32.93
2019-01-24T13:58:06.939Z,36.47
2019-01-24T14:00:37.016Z,29.57
2019-01-24T14:03:12.591Z,36.53
2019-01-24T14:05:42.358Z,29.37
2019-01-24T14:08:12.306Z,32.83
2019-01-24T14:10:42.024Z,32.37
2019-01-24T14:13:11.981Z,33.50
2019-01-24T14:15:43.996Z,29.80
2019-01-24T14:18:13.807Z,32.87
2019-01-24T14:20:43.874Z,32.20
2019-01-24T14:23:13.575Z,33.47
2019-01-24T14:25:43.302Z,36.10
2019-01-24T14:28:13.075Z,32.47
2019-01-24T14:30:43.022Z,36.10
2019-01-24T14:33:12.728Z,29.33
2019-01-24T14:35:42.690Z,29.83
2019-01-24T14:38:12.462Z,33.57
2019-01-24T14:40:42.197Z,31.73
2019-01-24T14:43:12.033Z,31.73
2019-01-24T14:45:41.736Z,32.13
2019-01-24T14:48:11.819Z,32.23
2019-01-24T14:50:41.575Z,33.57
2019-01-24T14:53:11.382Z,31.20
2019-01-24T14:55:41.134Z,32.77
2019-01-24T14:58:10.868Z,34.37
2019-01-24T15:00:44.156Z,32.50
2019-01-24T15:03:13.879Z,29.87
2019-01-24T15:05:43.621Z,33.90
2019-01-24T15:08:14.809Z,33.47
2019-01-24T15:10:44.725Z,33.83
2019-01-24T15:13:14.439Z,34.40
2019-01-24T15:15:44.159Z,32.53
2019-01-24T15:18:14.161Z,30.10
2019-01-24T15:20:44.213Z,32.37
2019-01-24T15:23:14.306Z,33.13
2019-01-24T15:25:43.930Z,32.80
2019-01-24T15:28:13.622Z,32.30
2019-01-24T15:30:43.403Z,31.97
2019-01-24T15:33:13.025Z,30.50
2019-01-24T15:35:42.953Z,34.30
2019-01-24T15:38:12.740Z,32.67
2019-01-24T15:40:42.501Z,31.00
2019-01-24T15:43:12.269Z,36.20
2019-01-24T15:45:42.405Z,36.00
2019-01-24T15:48:12.174Z,31.73
2019-01-24T15:50:41.936Z,29.93
2019-01-24T15:53:11.698Z,34.20
2019-01-24T15:55:41.863Z,34.53
2019-01-24T15:58:11.640Z,30.73
2019-01-24T16:00:41.417Z,27.73
2019-01-24T16:03:13.720Z,31.13
2019-01-24T16:05:43.318Z,29.50
2019-01-24T16:08:13.071Z,35.97
2019-01-24T16:10:42.822Z,31.57
2019-01-24T16:13:12.479Z,29.53
2019-01-24T16:15:42.235Z,30.87
2019-01-24T16:18:13.662Z,31.77
2019-01-24T16:20:43.770Z,49.40
2019-01-24T16:23:13.474Z,29.70
2019-01-24T16:25:43.180Z,30.67
2019-01-24T16:28:13.200Z,32.10
2019-01-24T16:30:42.942Z,30.17
2019-01-24T16:33:12.723Z,33.23
2019-01-24T16:35:42.495Z,32.27
2019-01-24T16:38:12.251Z,34.57
2019-01-24T16:40:42.075Z,34.03
2019-01-24T16:43:11.767Z,31.47
2019-01-24T16:45:41.895Z,29.90
2019-01-24T16:48:11.539Z,34.77
2019-01-24T16:50:41.619Z,33.50
2019-01-24T16:53:11.631Z,33.37
2019-01-24T16:55:41.755Z,34.23
2019-01-24T16:58:11.522Z,33.53
2019-01-24T17:00:44.281Z,33.70
2019-01-24T17:03:13.979Z,35.10
2019-01-24T17:05:44.016Z,33.43
2019-01-24T17:08:16.618Z,32.53
2019-01-24T17:10:45.168Z,34.13
2019-01-24T17:13:14.964Z,34.63
2019-01-24T17:15:44.744Z,35.87
2019-01-24T17:18:14.979Z,37.00
2019-01-24T17:20:44.647Z,34.97
2019-01-24T17:23:14.268Z,35.50
2019-01-24T17:25:44.139Z,36.43
2019-01-24T17:28:13.800Z,36.13
2019-01-24T17:30:43.581Z,34.37
2019-01-24T17:33:13.370Z,35.23
2019-01-24T17:35:43.144Z,40.57
2019-01-24T17:38:12.850Z,36.97
2019-01-24T17:40:42.954Z,38.10
2019-01-24T17:43:12.756Z,39.50
2019-01-24T17:45:42.459Z,41.77
2019-01-24T17:48:12.216Z,40.80
2019-01-24T17:50:42.331Z,39.33
2019-01-24T17:53:12.346Z,39.20
2019-01-24T17:55:45.042Z,38.70
2019-01-24T17:58:14.847Z,37.37
2019-01-24T18:00:46.753Z,38.23
2019-01-24T18:03:16.539Z,36.43
2019-01-24T18:05:46.736Z,48.80
2019-01-24T18:08:36.204Z,39.80
2019-01-24T18:11:06.011Z,38.63
2019-01-24T18:13:35.756Z,42.87
2019-01-24T18:16:05.575Z,36.80
2019-01-24T18:18:35.324Z,37.77
2019-01-24T18:21:05.073Z,38.83
2019-01-24T18:23:35.174Z,43.30
2019-01-24T18:26:05.923Z,42.27
2019-01-24T18:28:35.728Z,42.47
2019-01-24T18:31:05.567Z,35.83
2019-01-24T18:33:35.282Z,41.83
2019-01-24T18:36:05.253Z,38.87
2019-01-24T18:38:38.577Z,39.83
2019-01-24T18:41:08.659Z,38.93
2019-01-24T18:43:38.283Z,40.23
2019-01-24T18:46:08.062Z,37.93
2019-01-24T18:48:37.837Z,38.03
2019-01-24T18:51:07.607Z,37.97
2019-01-24T18:53:37.741Z,39.10
2019-01-24T18:56:07.597Z,40.57
2019-01-24T18:58:37.564Z,39.27
2019-01-24T19:01:07.302Z,41.33
2019-01-24T19:03:37.017Z,38.60
2019-01-24T19:06:06.798Z,38.03
2019-01-24T19:08:36.559Z,39.90
2019-01-24T19:11:06.894Z,36.37
2019-01-24T19:13:40.146Z,36.33
2019-01-24T19:16:13.373Z,35.67
2019-01-24T19:18:43.176Z,35.47
2019-01-24T19:21:12.997Z,37.50
2019-01-24T19:23:42.685Z,38.40
2019-01-24T19:26:12.436Z,39.33
2019-01-24T19:28:42.221Z,38.17
2019-01-24T19:31:12.082Z,34.73
2019-01-24T19:33:41.944Z,38.73
2019-01-24T19:36:11.731Z,36.97
2019-01-24T19:38:41.515Z,35.93
2019-01-24T19:41:11.212Z,35.70
2019-01-24T19:43:40.962Z,35.87
2019-01-24T19:46:10.693Z,34.63
2019-01-24T19:48:40.772Z,38.97
2019-01-24T19:51:10.543Z,36.63
2019-01-24T19:53:40.286Z,36.47
2019-01-24T19:56:10.203Z,33.17
2019-01-24T19:58:41.002Z,37.70
2019-01-24T20:01:11.264Z,41.37
2019-01-24T20:03:41.126Z,40.13
2019-01-24T20:06:10.899Z,36.93
2019-01-24T20:08:40.631Z,35.80
2019-01-24T20:11:10.398Z,36.60
2019-01-24T20:13:42.692Z,34.30
2019-01-24T20:16:11.350Z,41.73
2019-01-24T20:18:41.174Z,35.53
2019-01-24T20:21:10.909Z,34.47
2019-01-24T20:23:41.014Z,36.30
2019-01-24T20:26:10.784Z,34.50
2019-01-24T20:28:40.510Z,34.43
2019-01-24T20:31:10.315Z,32.90
2019-01-24T20:33:40.470Z,31.30
2019-01-24T20:36:10.584Z,32.10
2019-01-24T20:38:40.291Z,29.30
2019-01-24T20:41:10.114Z,31.50
2019-01-24T20:43:39.839Z,26.20
2019-01-24T20:46:09.657Z,27.23
2019-01-24T20:48:39.366Z,26.30
2019-01-24T20:51:09.182Z,26.60
2019-01-24T20:53:39.268Z,27.40
2019-01-24T20:56:09.176Z,27.93
2019-01-24T20:58:38.865Z,26.77
2019-01-24T21:01:08.639Z,27.70
2019-01-24T21:03:38.616Z,26.87
2019-01-24T21:06:08.422Z,24.00
2019-01-24T21:08:38.331Z,26.53
2019-01-24T21:11:08.099Z,25.70
2019-01-24T21:13:37.865Z,24.23
2019-01-24T21:16:07.636Z,25.50
2019-01-24T21:18:37.408Z,27.10
2019-01-24T21:21:07.203Z,24.07
2019-01-24T21:23:37.126Z,25.00
2019-01-24T21:26:06.939Z,24.13
2019-01-24T21:28:36.650Z,24.47
2019-01-24T21:31:06.463Z,24.20
2019-01-24T21:33:36.907Z,25.07
2019-01-24T21:36:06.771Z,22.53
2019-01-24T21:38:36.455Z,25.87
2019-01-24T21:41:06.254Z,22.70
2019-01-24T21:43:40.536Z,24.40
2019-01-24T21:46:12.516Z,24.20
2019-01-24T21:48:42.319Z,23.97
2019-01-24T21:51:12.132Z,23.53
2019-01-24T21:53:42.332Z,23.67
2019-01-24T21:56:12.083Z,22.17
2019-01-24T21:58:41.902Z,25.57
2019-01-24T22:01:11.677Z,22.00
2019-01-24T22:03:41.466Z,25.37
2019-01-24T22:06:11.258Z,25.30
2019-01-24T22:08:41.070Z,21.60
2019-01-24T22:33:08.199Z,24.13
2019-01-24T22:35:37.992Z,23.67
2019-01-24T22:38:08.112Z,25.67
2019-01-24T22:40:37.878Z,21.37
2019-01-24T22:43:08.162Z,23.80
2019-01-24T22:45:37.962Z,23.60
2019-01-24T22:48:07.765Z,24.77
2019-01-24T22:50:37.576Z,23.43
2019-01-24T22:53:07.343Z,24.70
2019-01-24T22:55:37.239Z,23.50
2019-01-24T22:58:07.332Z,23.67
2019-01-24T23:00:47.506Z,22.70
2019-01-24T23:03:32.303Z,20.53
2019-01-24T23:06:02.044Z,24.40
2019-01-24T23:08:32.192Z,25.53
2019-01-24T23:11:01.972Z,23.40
2019-01-24T23:13:31.791Z,23.37
2019-01-24T23:16:01.526Z,23.67
2019-01-24T23:18:31.329Z,24.00
2019-01-24T23:21:01.139Z,24.40
2019-01-24T23:23:31.281Z,23.47
2019-01-24T23:26:01.387Z,24.50
2019-01-24T23:28:31.128Z,24.43
2019-01-24T23:31:00.900Z,26.17
2019-01-24T23:33:30.731Z,23.67
2019-01-24T23:36:00.740Z,24.90
2019-01-24T23:38:30.568Z,24.33
2019-01-24T23:41:00.340Z,27.03
2019-01-24T23:43:30.376Z,24.97
2019-01-24T23:46:00.086Z,24.30
2019-01-24T23:48:30.112Z,23.27
2019-01-24T23:50:59.911Z,24.80
2019-01-24T23:53:29.620Z,24.67
2019-01-24T23:55:59.387Z,24.80
2019-01-24T23:58:29.480Z,23.83
